sensor_id;sensor_type;location;lat;lon;timestamp;pressure;altitude;pressure_sealevel;temperature;humidity
40708;BME280;26392;42.696;23.350;2023-08-20T00:02:11;95561.34;;;21.89;100.00
40708;BME280;26392;42.696;23.350;2023-08-20T00:04:37;95561.34;;;21.89;100.00
40708;BME280;26392;42.696;23.350;2023-08-20T00:07:02;95558.72;;;21.84;100.00
40708;BME280;26392;42.696;23.350;2023-08-20T00:09:28;95556.94;;;21.80;100.00
40708;BME280;26392;42.696;23.350;2023-08-20T00:11:55;95561.00;;;21.74;100.00
40708;BME280;26392;42.696;23.350;2023-08-20T00:17:18;95554.41;;;21.61;100.00
40708;BME280;26392;42.696;23.350;2023-08-20T00:19:44;95551.13;;;21.59;100.00
40708;BME280;26392;42.696;23.350;2023-08-20T00:22:10;95555.50;;;21.51;100.00
40708;BME280;26392;42.696;23.350;2023-08-20T00:24:36;95558.53;;;21.41;100.00
40708;BME280;26392;42.696;23.350;2023-08-20T00:27:02;95559.06;;;21.43;100.00
40708;BME280;26392;42.696;23.350;2023-08-20T00:29:27;95562.78;;;21.38;100.00
40708;BME280;26392;42.696;23.350;2023-08-20T00:31:52;95554.06;;;21.31;100.00
40708;BME280;26392;42.696;23.350;2023-08-20T00:34:18;95566.97;;;21.36;100.00
40708;BME280;26392;42.696;23.350;2023-08-20T00:36:43;95560.44;;;21.32;100.00
40708;BME280;26392;42.696;23.350;2023-08-20T00:39:09;95560.44;;;21.32;100.00
40708;BME280;26392;42.696;23.350;2023-08-20T00:41:34;95556.28;;;21.20;100.00
40708;BME280;26392;42.696;23.350;2023-08-20T00:43:59;95548.41;;;21.14;100.00
40708;BME280;26392;42.696;23.350;2023-08-20T00:46:25;95553.78;;;21.10;100.00
40708;BME280;26392;42.696;23.350;2023-08-20T00:48:51;95551.66;;;21.07;100.00
40708;BME280;26392;42.696;23.350;2023-08-20T00:51:17;95556.03;;;21.08;100.00
40708;BME280;26392;42.696;23.350;2023-08-20T00:53:42;95563.38;;;21.04;100.00
40708;BME280;26392;42.696;23.350;2023-08-20T00:56:09;95559.91;;;20.98;100.00
40708;BME280;26392;42.696;23.350;2023-08-20T00:58:34;95561.34;;;20.96;100.00
40708;BME280;26392;42.696;23.350;2023-08-20T01:01:00;95557.00;;;20.81;100.00
40708;BME280;26392;42.696;23.350;2023-08-20T01:03:25;95548.78;;;20.67;100.00
40708;BME280;26392;42.696;23.350;2023-08-20T01:08:40;95548.56;;;20.86;100.00
40708;BME280;26392;42.696;23.350;2023-08-20T01:13:31;95557.84;;;20.82;100.00
40708;BME280;26392;42.696;23.350;2023-08-20T01:15:57;95549.31;;;20.78;100.00
40708;BME280;26392;42.696;23.350;2023-08-20T01:18:23;95553.56;;;20.75;100.00
40708;BME280;26392;42.696;23.350;2023-08-20T01:21:02;95557.56;;;20.69;100.00
40708;BME280;26392;42.696;23.350;2023-08-20T01:23:35;95559.84;;;20.67;100.00
40708;BME280;26392;42.696;23.350;2023-08-20T01:29:10;95549.13;;;20.74;100.00
40708;BME280;26392;42.696;23.350;2023-08-20T01:31:37;95546.19;;;20.71;100.00
40708;BME280;26392;42.696;23.350;2023-08-20T01:34:03;95547.63;;;20.68;100.00
40708;BME280;26392;42.696;23.350;2023-08-20T01:36:29;95550.78;;;20.75;100.00
40708;BME280;26392;42.696;23.350;2023-08-20T01:38:54;95543.47;;;20.79;100.00
40708;BME280;26392;42.696;23.350;2023-08-20T01:41:20;95542.53;;;20.84;100.00
40708;BME280;26392;42.696;23.350;2023-08-20T01:43:45;95547.75;;;20.86;100.00
40708;BME280;26392;42.696;23.350;2023-08-20T01:46:10;95534.03;;;20.81;100.00
40708;BME280;26392;42.696;23.350;2023-08-20T01:48:37;95530.38;;;20.71;100.00
40708;BME280;26392;42.696;23.350;2023-08-20T01:51:03;95531.31;;;20.67;100.00
40708;BME280;26392;42.696;23.350;2023-08-20T01:53:28;95527.16;;;20.78;100.00
40708;BME280;26392;42.696;23.350;2023-08-20T01:55:54;95526.22;;;20.83;100.00
40708;BME280;26392;42.696;23.350;2023-08-20T01:58:19;95522.66;;;20.82;100.00
40708;BME280;26392;42.696;23.350;2023-08-20T02:00:45;95508.63;;;20.78;100.00
40708;BME280;26392;42.696;23.350;2023-08-20T02:03:11;95515.59;;;20.76;100.00
40708;BME280;26392;42.696;23.350;2023-08-20T02:05:36;95518.50;;;20.71;100.00
40708;BME280;26392;42.696;23.350;2023-08-20T02:08:03;95514.91;;;20.70;100.00
40708;BME280;26392;42.696;23.350;2023-08-20T02:10:29;95514.91;;;20.70;100.00
40708;BME280;26392;42.696;23.350;2023-08-20T02:12:54;95510.50;;;20.69;100.00
40708;BME280;26392;42.696;23.350;2023-08-20T02:15:20;95510.44;;;20.83;100.00
40708;BME280;26392;42.696;23.350;2023-08-20T02:17:45;95500.03;;;20.89;100.00
40708;BME280;26392;42.696;23.350;2023-08-20T02:20:11;95495.25;;;20.81;100.00
40708;BME280;26392;42.696;23.350;2023-08-20T02:22:36;95498.72;;;20.86;100.00
40708;BME280;26392;42.696;23.350;2023-08-20T02:25:02;95498.72;;;20.86;100.00
40708;BME280;26392;42.696;23.350;2023-08-20T02:27:27;95494.50;;;20.89;100.00
40708;BME280;26392;42.696;23.350;2023-08-20T02:29:53;95497.78;;;20.91;100.00
40708;BME280;26392;42.696;23.350;2023-08-20T02:32:18;95495.31;;;20.89;100.00
40708;BME280;26392;42.696;23.350;2023-08-20T02:34:44;95507.22;;;20.90;100.00
40708;BME280;26392;42.696;23.350;2023-08-20T02:37:09;95498.72;;;20.86;100.00
40708;BME280;26392;42.696;23.350;2023-08-20T02:39:35;95501.81;;;20.85;100.00
40708;BME280;26392;42.696;23.350;2023-08-20T02:42:00;95504.53;;;20.76;100.00
40708;BME280;26392;42.696;23.350;2023-08-20T02:44:25;95513.66;;;20.76;100.00
40708;BME280;26392;42.696;23.350;2023-08-20T02:46:51;95520.13;;;20.72;100.00
40708;BME280;26392;42.696;23.350;2023-08-20T02:49:16;95515.66;;;20.62;100.00
40708;BME280;26392;42.696;23.350;2023-08-20T02:51:44;95514.78;;;20.53;100.00
40708;BME280;26392;42.696;23.350;2023-08-20T02:54:10;95505.94;;;20.51;100.00
40708;BME280;26392;42.696;23.350;2023-08-20T02:56:35;95507.91;;;20.50;100.00
40708;BME280;26392;42.696;23.350;2023-08-20T02:59:01;95512.03;;;20.39;100.00
40708;BME280;26392;42.696;23.350;2023-08-20T03:01:26;95504.41;;;20.22;100.00
40708;BME280;26392;42.696;23.350;2023-08-20T03:03:52;95517.31;;;20.13;100.00
40708;BME280;26392;42.696;23.350;2023-08-20T03:06:17;95521.84;;;20.09;100.00
40708;BME280;26392;42.696;23.350;2023-08-20T03:08:43;95518.13;;;20.13;100.00
40708;BME280;26392;42.696;23.350;2023-08-20T03:11:09;95529.00;;;20.10;100.00
40708;BME280;26392;42.696;23.350;2023-08-20T03:13:34;95524.28;;;20.10;100.00
40708;BME280;26392;42.696;23.350;2023-08-20T03:16:00;95530.34;;;20.12;100.00
40708;BME280;26392;42.696;23.350;2023-08-20T03:18:26;95522.47;;;20.06;100.00
40708;BME280;26392;42.696;23.350;2023-08-20T03:20:54;95520.63;;;20.01;100.00
40708;BME280;26392;42.696;23.350;2023-08-20T03:23:20;95530.69;;;19.97;100.00
40708;BME280;26392;42.696;23.350;2023-08-20T03:25:45;95526.38;;;19.91;100.00
40708;BME280;26392;42.696;23.350;2023-08-20T03:28:10;95527.22;;;19.92;100.00
40708;BME280;26392;42.696;23.350;2023-08-20T03:30:36;95519.09;;;19.95;100.00
40708;BME280;26392;42.696;23.350;2023-08-20T03:33:02;95524.31;;;19.97;100.00
40708;BME280;26392;42.696;23.350;2023-08-20T03:35:27;95523.72;;;20.00;100.00
40708;BME280;26392;42.696;23.350;2023-08-20T03:37:53;95530.78;;;20.06;100.00
40708;BME280;26392;42.696;23.350;2023-08-20T03:40:18;95532.63;;;19.97;100.00
40708;BME280;26392;42.696;23.350;2023-08-20T03:42:43;95522.41;;;19.83;100.00
40708;BME280;26392;42.696;23.350;2023-08-20T03:45:09;95528.66;;;19.75;100.00
40708;BME280;26392;42.696;23.350;2023-08-20T03:47:34;95517.38;;;19.72;100.00
40708;BME280;26392;42.696;23.350;2023-08-20T03:50:02;95525.09;;;19.75;100.00
40708;BME280;26392;42.696;23.350;2023-08-20T03:52:27;95513.69;;;19.62;100.00
40708;BME280;26392;42.696;23.350;2023-08-20T03:54:53;95516.44;;;19.62;100.00
40708;BME280;26392;42.696;23.350;2023-08-20T03:57:18;95514.63;;;19.58;100.00
40708;BME280;26392;42.696;23.350;2023-08-20T03:59:43;95520.16;;;19.58;100.00
40708;BME280;26392;42.696;23.350;2023-08-20T04:02:10;95515.13;;;19.60;100.00
40708;BME280;26392;42.696;23.350;2023-08-20T04:04:36;95510.91;;;19.62;100.00
40708;BME280;26392;42.696;23.350;2023-08-20T04:07:02;95509.22;;;19.66;100.00
40708;BME280;26392;42.696;23.350;2023-08-20T04:09:28;95518.31;;;19.67;100.00
40708;BME280;26392;42.696;23.350;2023-08-20T04:11:53;95509.22;;;19.66;100.00
40708;BME280;26392;42.696;23.350;2023-08-20T04:14:19;95520.03;;;19.77;100.00
40708;BME280;26392;42.696;23.350;2023-08-20T04:16:44;95510.41;;;19.88;100.00
40708;BME280;26392;42.696;23.350;2023-08-20T04:19:09;95513.16;;;20.02;100.00
40708;BME280;26392;42.696;23.350;2023-08-20T04:21:35;95516.28;;;20.23;100.00
40708;BME280;26392;42.696;23.350;2023-08-20T04:24:00;95515.09;;;20.38;100.00
40708;BME280;26392;42.696;23.350;2023-08-20T04:26:29;95520.09;;;20.49;100.00
40708;BME280;26392;42.696;23.350;2023-08-20T04:28:54;95517.63;;;20.62;100.00
40708;BME280;26392;42.696;23.350;2023-08-20T04:31:19;95522.41;;;20.70;100.00
40708;BME280;26392;42.696;23.350;2023-08-20T04:33:45;95516.09;;;20.78;100.00
40708;BME280;26392;42.696;23.350;2023-08-20T04:36:11;95515.66;;;20.85;100.00
40708;BME280;26392;42.696;23.350;2023-08-20T04:38:36;95518.19;;;20.95;100.00
40708;BME280;26392;42.696;23.350;2023-08-20T04:41:02;95525.41;;;21.05;100.00
40708;BME280;26392;42.696;23.350;2023-08-20T04:43:27;95518.41;;;21.07;100.00
40708;BME280;26392;42.696;23.350;2023-08-20T04:45:53;95524.00;;;21.16;100.00
40708;BME280;26392;42.696;23.350;2023-08-20T04:48:18;95523.88;;;21.21;100.00
40708;BME280;26392;42.696;23.350;2023-08-20T04:50:44;95527.31;;;21.27;100.00
40708;BME280;26392;42.696;23.350;2023-08-20T04:53:09;95519.03;;;21.35;100.00
40708;BME280;26392;42.696;23.350;2023-08-20T04:55:34;95510.97;;;21.48;100.00
40708;BME280;26392;42.696;23.350;2023-08-20T04:58:00;95536.63;;;21.31;100.00
40708;BME280;26392;42.696;23.350;2023-08-20T05:00:26;95527.34;;;21.35;100.00
40708;BME280;26392;42.696;23.350;2023-08-20T05:02:51;95529.25;;;21.49;100.00
40708;BME280;26392;42.696;23.350;2023-08-20T05:05:17;95528.94;;;21.59;100.00
40708;BME280;26392;42.696;23.350;2023-08-20T05:07:43;95529.72;;;21.51;100.00
40708;BME280;26392;42.696;23.350;2023-08-20T05:10:09;95528.31;;;21.62;100.00
40708;BME280;26392;42.696;23.350;2023-08-20T05:12:35;95526.03;;;21.64;100.00
40708;BME280;26392;42.696;23.350;2023-08-20T05:15:01;95538.09;;;21.59;100.00
40708;BME280;26392;42.696;23.350;2023-08-20T05:17:26;95533.44;;;21.77;100.00
40708;BME280;26392;42.696;23.350;2023-08-20T05:19:52;95543.41;;;21.96;100.00
40708;BME280;26392;42.696;23.350;2023-08-20T05:22:17;95534.50;;;22.07;100.00
40708;BME280;26392;42.696;23.350;2023-08-20T05:24:43;95545.78;;;22.20;100.00
40708;BME280;26392;42.696;23.350;2023-08-20T05:29:36;95543.38;;;22.44;100.00
40708;BME280;26392;42.696;23.350;2023-08-20T05:32:02;95546.56;;;22.11;100.00
40708;BME280;26392;42.696;23.350;2023-08-20T05:34:27;95547.09;;;22.22;100.00
40708;BME280;26392;42.696;23.350;2023-08-20T05:36:53;95546.59;;;22.20;100.00
40708;BME280;26392;42.696;23.350;2023-08-20T05:39:18;95554.25;;;22.15;100.00
40708;BME280;26392;42.696;23.350;2023-08-20T05:41:43;95549.38;;;22.20;100.00
40708;BME280;26392;42.696;23.350;2023-08-20T05:44:10;95547.94;;;22.31;100.00
40708;BME280;26392;42.696;23.350;2023-08-20T05:46:35;95549.09;;;22.39;100.00
40708;BME280;26392;42.696;23.350;2023-08-20T05:49:01;95559.75;;;22.63;100.00
40708;BME280;26392;42.696;23.350;2023-08-20T05:51:26;95560.38;;;22.69;100.00
40708;BME280;26392;42.696;23.350;2023-08-20T05:53:52;95565.25;;;22.54;100.00
40708;BME280;26392;42.696;23.350;2023-08-20T05:56:17;95566.56;;;22.48;100.00
40708;BME280;26392;42.696;23.350;2023-08-20T05:58:42;95559.03;;;22.49;100.00
40708;BME280;26392;42.696;23.350;2023-08-20T06:01:08;95558.44;;;22.61;100.00
40708;BME280;26392;42.696;23.350;2023-08-20T06:03:33;95555.66;;;22.78;100.00
40708;BME280;26392;42.696;23.350;2023-08-20T06:05:59;95552.22;;;22.81;100.00
40708;BME280;26392;42.696;23.350;2023-08-20T06:08:24;95547.81;;;22.97;100.00
40708;BME280;26392;42.696;23.350;2023-08-20T06:10:50;95553.00;;;23.25;100.00
40708;BME280;26392;42.696;23.350;2023-08-20T06:13:16;95554.75;;;23.47;100.00
40708;BME280;26392;42.696;23.350;2023-08-20T06:15:41;95551.41;;;23.71;100.00
40708;BME280;26392;42.696;23.350;2023-08-20T06:18:07;95563.25;;;23.98;97.05
40708;BME280;26392;42.696;23.350;2023-08-20T06:20:32;95562.97;;;24.20;98.45
40708;BME280;26392;42.696;23.350;2023-08-20T06:22:58;95569.56;;;24.37;89.99
40708;BME280;26392;42.696;23.350;2023-08-20T06:25:23;95559.28;;;24.58;88.02
40708;BME280;26392;42.696;23.350;2023-08-20T06:27:48;95563.44;;;24.73;88.73
40708;BME280;26392;42.696;23.350;2023-08-20T06:30:14;95554.13;;;24.90;86.50
40708;BME280;26392;42.696;23.350;2023-08-20T06:32:39;95557.53;;;25.16;85.04
40708;BME280;26392;42.696;23.350;2023-08-20T06:35:05;95554.66;;;25.37;84.43
40708;BME280;26392;42.696;23.350;2023-08-20T06:37:31;95560.91;;;25.55;80.41
40708;BME280;26392;42.696;23.350;2023-08-20T06:39:56;95555.09;;;25.60;79.63
40708;BME280;26392;42.696;23.350;2023-08-20T06:42:22;95555.47;;;25.71;77.33
40708;BME280;26392;42.696;23.350;2023-08-20T06:44:47;95557.41;;;25.71;76.92
40708;BME280;26392;42.696;23.350;2023-08-20T06:47:12;95552.78;;;25.75;77.55
40708;BME280;26392;42.696;23.350;2023-08-20T06:49:40;95552.31;;;25.73;77.39
40708;BME280;26392;42.696;23.350;2023-08-20T06:52:05;95552.50;;;25.88;78.27
40708;BME280;26392;42.696;23.350;2023-08-20T06:54:31;95555.16;;;26.09;79.41
40708;BME280;26392;42.696;23.350;2023-08-20T06:56:56;95552.81;;;26.24;80.38
40708;BME280;26392;42.696;23.350;2023-08-20T06:59:22;95560.84;;;26.38;75.81
40708;BME280;26392;42.696;23.350;2023-08-20T07:01:48;95560.63;;;26.43;75.82
40708;BME280;26392;42.696;23.350;2023-08-20T07:04:13;95557.47;;;26.56;75.94
40708;BME280;26392;42.696;23.350;2023-08-20T07:06:39;95557.72;;;26.64;71.70
40708;BME280;26392;42.696;23.350;2023-08-20T07:09:05;95559.66;;;26.63;69.81
40708;BME280;26392;42.696;23.350;2023-08-20T07:11:30;95554.53;;;26.77;72.14
40708;BME280;26392;42.696;23.350;2023-08-20T07:13:55;95564.41;;;26.87;69.73
40708;BME280;26392;42.696;23.350;2023-08-20T07:16:21;95548.28;;;26.96;72.30
40708;BME280;26392;42.696;23.350;2023-08-20T07:18:46;95552.56;;;27.06;70.00
40708;BME280;26392;42.696;23.350;2023-08-20T07:21:12;95554.53;;;27.18;65.54
40708;BME280;26392;42.696;23.350;2023-08-20T07:23:37;95551.81;;;27.21;66.16
40708;BME280;26392;42.696;23.350;2023-08-20T07:26:07;95556.00;;;27.28;62.81
40708;BME280;26392;42.696;23.350;2023-08-20T07:28:33;95553.56;;;27.26;62.05
40708;BME280;26392;42.696;23.350;2023-08-20T07:31:17;95557.38;;;27.34;62.45
40708;BME280;26392;42.696;23.350;2023-08-20T07:33:46;95549.25;;;27.44;64.29
40708;BME280;26392;42.696;23.350;2023-08-20T07:36:13;95549.94;;;27.54;62.16
40708;BME280;26392;42.696;23.350;2023-08-20T07:38:39;95547.41;;;27.64;61.91
40708;BME280;26392;42.696;23.350;2023-08-20T07:41:06;95550.47;;;27.75;62.96
40708;BME280;26392;42.696;23.350;2023-08-20T07:43:32;95563.25;;;27.88;59.15
40708;BME280;26392;42.696;23.350;2023-08-20T07:45:57;95555.31;;;27.91;56.26
40708;BME280;26392;42.696;23.350;2023-08-20T07:48:23;95549.06;;;27.97;57.14
40708;BME280;26392;42.696;23.350;2023-08-20T07:50:48;95549.25;;;28.04;57.50
40708;BME280;26392;42.696;23.350;2023-08-20T07:53:14;95548.16;;;28.09;56.56
40708;BME280;26392;42.696;23.350;2023-08-20T07:55:39;95557.47;;;28.13;55.37
40708;BME280;26392;42.696;23.350;2023-08-20T07:58:04;95559.09;;;28.14;55.21
40708;BME280;26392;42.696;23.350;2023-08-20T08:00:30;95548.34;;;28.16;55.62
40708;BME280;26392;42.696;23.350;2023-08-20T08:02:56;95546.81;;;28.19;54.83
40708;BME280;26392;42.696;23.350;2023-08-20T08:05:21;95549.16;;;28.32;53.84
40708;BME280;26392;42.696;23.350;2023-08-20T08:07:46;95547.41;;;28.28;53.79
40708;BME280;26392;42.696;23.350;2023-08-20T08:10:12;95543.47;;;28.29;53.22
40708;BME280;26392;42.696;23.350;2023-08-20T08:12:37;95540.94;;;28.24;52.69
40708;BME280;26392;42.696;23.350;2023-08-20T08:15:03;95536.41;;;28.35;51.92
40708;BME280;26392;42.696;23.350;2023-08-20T08:17:28;95542.44;;;28.37;52.11
40708;BME280;26392;42.696;23.350;2023-08-20T08:19:54;95542.19;;;28.42;52.76
40708;BME280;26392;42.696;23.350;2023-08-20T08:22:20;95545.88;;;28.30;51.74
40708;BME280;26392;42.696;23.350;2023-08-20T08:24:46;95548.78;;;28.50;50.81
40708;BME280;26392;42.696;23.350;2023-08-20T08:27:11;95544.25;;;28.45;50.41
40708;BME280;26392;42.696;23.350;2023-08-20T08:29:36;95549.22;;;28.36;50.23
40708;BME280;26392;42.696;23.350;2023-08-20T08:32:02;95549.16;;;28.17;50.47
40708;BME280;26392;42.696;23.350;2023-08-20T08:34:28;95550.00;;;28.01;49.77
40708;BME280;26392;42.696;23.350;2023-08-20T08:36:53;95549.22;;;28.20;48.79
40708;BME280;26392;42.696;23.350;2023-08-20T08:39:18;95538.41;;;28.19;47.62
40708;BME280;26392;42.696;23.350;2023-08-20T08:41:49;95554.66;;;28.29;47.18
40708;BME280;26392;42.696;23.350;2023-08-20T08:44:15;95539.91;;;28.48;47.09
40708;BME280;26392;42.696;23.350;2023-08-20T08:46:41;95544.75;;;28.67;48.07
40708;BME280;26392;42.696;23.350;2023-08-20T08:49:08;95531.63;;;28.71;47.00
40708;BME280;26392;42.696;23.350;2023-08-20T08:51:34;95537.97;;;28.87;48.40
40708;BME280;26392;42.696;23.350;2023-08-20T08:54:02;95537.16;;;28.87;44.65
40708;BME280;26392;42.696;23.350;2023-08-20T08:56:28;95534.44;;;28.90;44.92
40708;BME280;26392;42.696;23.350;2023-08-20T08:58:54;95539.09;;;28.83;44.08
40708;BME280;26392;42.696;23.350;2023-08-20T09:01:19;95549.84;;;28.61;44.93
40708;BME280;26392;42.696;23.350;2023-08-20T09:03:45;95537.31;;;28.74;45.95
40708;BME280;26392;42.696;23.350;2023-08-20T09:06:10;95541.59;;;28.68;45.61
40708;BME280;26392;42.696;23.350;2023-08-20T09:08:36;95533.25;;;28.72;45.26
40708;BME280;26392;42.696;23.350;2023-08-20T09:11:02;95533.63;;;28.90;46.23
40708;BME280;26392;42.696;23.350;2023-08-20T09:15:59;95535.50;;;28.82;44.35
40708;BME280;26392;42.696;23.350;2023-08-20T09:18:24;95534.66;;;29.01;44.93
40708;BME280;26392;42.696;23.350;2023-08-20T09:20:50;95518.47;;;29.30;43.73
40708;BME280;26392;42.696;23.350;2023-08-20T09:23:16;95521.66;;;29.51;42.51
40708;BME280;26392;42.696;23.350;2023-08-20T09:25:42;95529.97;;;29.63;42.88
40708;BME280;26392;42.696;23.350;2023-08-20T09:28:08;95527.03;;;29.60;42.56
40708;BME280;26392;42.696;23.350;2023-08-20T09:30:33;95526.09;;;29.52;43.38
40708;BME280;26392;42.696;23.350;2023-08-20T09:35:28;95524.38;;;29.25;43.63
40708;BME280;26392;42.696;23.350;2023-08-20T09:38:01;95527.91;;;29.41;43.56
40708;BME280;26392;42.696;23.350;2023-08-20T09:40:27;95516.94;;;29.55;43.77
40708;BME280;26392;42.696;23.350;2023-08-20T09:42:54;95527.44;;;29.39;41.29
40708;BME280;26392;42.696;23.350;2023-08-20T09:45:20;95515.59;;;29.49;40.97
40708;BME280;26392;42.696;23.350;2023-08-20T09:47:49;95522.91;;;29.54;40.50
40708;BME280;26392;42.696;23.350;2023-08-20T09:50:20;95519.84;;;29.39;40.20
40708;BME280;26392;42.696;23.350;2023-08-20T09:52:58;95521.78;;;29.35;40.46
40708;BME280;26392;42.696;23.350;2023-08-20T09:55:30;95513.66;;;29.30;41.56
40708;BME280;26392;42.696;23.350;2023-08-20T09:57:58;95505.78;;;29.16;41.43
40708;BME280;26392;42.696;23.350;2023-08-20T10:00:25;95501.63;;;29.30;42.14
40708;BME280;26392;42.696;23.350;2023-08-20T10:02:51;95508.88;;;29.54;41.79
40708;BME280;26392;42.696;23.350;2023-08-20T10:05:17;95514.91;;;29.75;39.75
40708;BME280;26392;42.696;23.350;2023-08-20T10:07:46;95514.19;;;29.59;39.60
40708;BME280;26392;42.696;23.350;2023-08-20T10:10:12;95518.41;;;29.69;39.64
40708;BME280;26392;42.696;23.350;2023-08-20T10:12:39;95523.28;;;29.72;40.15
40708;BME280;26392;42.696;23.350;2023-08-20T10:15:06;95512.72;;;29.65;39.14
40708;BME280;26392;42.696;23.350;2023-08-20T10:17:33;95517.66;;;29.72;39.27
40708;BME280;26392;42.696;23.350;2023-08-20T10:19:59;95519.53;;;29.87;38.43
40708;BME280;26392;42.696;23.350;2023-08-20T10:22:52;95508.66;;;29.85;39.61
40708;BME280;26392;42.696;23.350;2023-08-20T10:25:24;95511.59;;;29.93;39.94
40708;BME280;26392;42.696;23.350;2023-08-20T10:27:50;95498.31;;;30.16;40.36
40708;BME280;26392;42.696;23.350;2023-08-20T10:30:17;95506.63;;;30.32;39.40
40708;BME280;26392;42.696;23.350;2023-08-20T10:35:15;95497.00;;;30.33;38.48
40708;BME280;26392;42.696;23.350;2023-08-20T10:38:03;95503.38;;;30.30;40.09
40708;BME280;26392;42.696;23.350;2023-08-20T10:40:59;95489.34;;;30.30;39.73
40708;BME280;26392;42.696;23.350;2023-08-20T10:43:32;95489.41;;;30.33;39.81
40708;BME280;26392;42.696;23.350;2023-08-20T10:48:37;95486.16;;;30.31;39.48
40708;BME280;26392;42.696;23.350;2023-08-20T10:56:56;95479.88;;;30.72;38.58
40708;BME280;26392;42.696;23.350;2023-08-20T10:59:27;95473.34;;;30.91;37.90
40708;BME280;26392;42.696;23.350;2023-08-20T11:01:55;95478.16;;;30.90;37.14
40708;BME280;26392;42.696;23.350;2023-08-20T11:04:22;95475.25;;;30.83;37.91
40708;BME280;26392;42.696;23.350;2023-08-20T11:06:57;95468.16;;;30.93;36.82
40708;BME280;26392;42.696;23.350;2023-08-20T11:09:27;95471.50;;;31.06;36.23
40708;BME280;26392;42.696;23.350;2023-08-20T11:11:54;95480.47;;;31.15;36.66
40708;BME280;26392;42.696;23.350;2023-08-20T11:14:20;95463.19;;;31.16;37.18
40708;BME280;26392;42.696;23.350;2023-08-20T11:16:47;95463.94;;;31.10;36.34
40708;BME280;26392;42.696;23.350;2023-08-20T11:19:14;95469.06;;;31.01;36.93
40708;BME280;26392;42.696;23.350;2023-08-20T11:21:43;95459.41;;;30.71;37.07
40708;BME280;26392;42.696;23.350;2023-08-20T11:24:10;95457.13;;;30.50;37.63
40708;BME280;26392;42.696;23.350;2023-08-20T11:26:38;95451.56;;;30.54;38.07
40708;BME280;26392;42.696;23.350;2023-08-20T11:29:14;95464.19;;;30.67;37.84
40708;BME280;26392;42.696;23.350;2023-08-20T11:31:49;95456.91;;;30.66;38.05
40708;BME280;26392;42.696;23.350;2023-08-20T11:34:15;95450.91;;;30.64;38.16
40708;BME280;26392;42.696;23.350;2023-08-20T11:36:41;95463.59;;;30.54;38.42
40708;BME280;26392;42.696;23.350;2023-08-20T11:39:07;95451.69;;;30.65;38.29
40708;BME280;26392;42.696;23.350;2023-08-20T11:41:37;95447.31;;;30.67;38.51
40708;BME280;26392;42.696;23.350;2023-08-20T11:44:03;95447.19;;;30.87;38.94
40708;BME280;26392;42.696;23.350;2023-08-20T11:46:29;95450.31;;;31.15;37.97
40708;BME280;26392;42.696;23.350;2023-08-20T11:49:05;95459.63;;;30.86;37.89
40708;BME280;26392;42.696;23.350;2023-08-20T11:51:39;95443.53;;;30.86;38.36
40708;BME280;26392;42.696;23.350;2023-08-20T11:54:15;95449.94;;;31.17;38.70
40708;BME280;26392;42.696;23.350;2023-08-20T11:56:49;95438.75;;;31.24;37.92
40708;BME280;26392;42.696;23.350;2023-08-20T11:59:16;95433.50;;;31.22;38.82
40708;BME280;26392;42.696;23.350;2023-08-20T12:01:41;95437.00;;;31.46;38.13
40708;BME280;26392;42.696;23.350;2023-08-20T12:04:08;95446.47;;;31.68;37.35
40708;BME280;26392;42.696;23.350;2023-08-20T12:06:37;95435.75;;;31.88;36.42
40708;BME280;26392;42.696;23.350;2023-08-20T12:09:22;95423.66;;;31.84;37.50
40708;BME280;26392;42.696;23.350;2023-08-20T12:11:48;95443.09;;;31.52;37.62
40708;BME280;26392;42.696;23.350;2023-08-20T12:14:13;95427.19;;;31.33;38.08
40708;BME280;26392;42.696;23.350;2023-08-20T12:16:39;95424.84;;;31.38;38.59
40708;BME280;26392;42.696;23.350;2023-08-20T12:19:04;95430.75;;;31.26;38.61
40708;BME280;26392;42.696;23.350;2023-08-20T12:21:30;95413.41;;;31.20;38.76
40708;BME280;26392;42.696;23.350;2023-08-20T12:23:55;95421.78;;;31.17;38.54
40708;BME280;26392;42.696;23.350;2023-08-20T12:26:21;95418.47;;;31.08;38.87
40708;BME280;26392;42.696;23.350;2023-08-20T12:28:46;95414.97;;;31.18;38.95
40708;BME280;26392;42.696;23.350;2023-08-20T12:31:11;95416.84;;;31.40;38.62
40708;BME280;26392;42.696;23.350;2023-08-20T12:33:37;95408.88;;;31.50;38.17
40708;BME280;26392;42.696;23.350;2023-08-20T12:36:02;95423.75;;;31.50;38.22
40708;BME280;26392;42.696;23.350;2023-08-20T12:38:28;95418.22;;;31.57;37.51
40708;BME280;26392;42.696;23.350;2023-08-20T12:40:59;95413.81;;;31.60;37.95
40708;BME280;26392;42.696;23.350;2023-08-20T12:43:24;95416.34;;;31.76;37.85
40708;BME280;26392;42.696;23.350;2023-08-20T12:45:50;95407.97;;;31.86;38.13
40708;BME280;26392;42.696;23.350;2023-08-20T12:48:15;95402.22;;;31.69;37.56
40708;BME280;26392;42.696;23.350;2023-08-20T12:50:41;95415.50;;;31.68;38.21
40708;BME280;26392;42.696;23.350;2023-08-20T12:53:07;95403.38;;;31.64;37.87
40708;BME280;26392;42.696;23.350;2023-08-20T12:55:32;95405.72;;;31.55;37.67
40708;BME280;26392;42.696;23.350;2023-08-20T12:57:58;95400.47;;;31.53;38.05
40708;BME280;26392;42.696;23.350;2023-08-20T13:00:25;95400.56;;;31.64;38.87
40708;BME280;26392;42.696;23.350;2023-08-20T13:02:55;95409.97;;;31.82;38.33
40708;BME280;26392;42.696;23.350;2023-08-20T13:05:22;95407.00;;;31.64;37.52
40708;BME280;26392;42.696;23.350;2023-08-20T13:07:48;95403.25;;;31.50;38.22
40708;BME280;26392;42.696;23.350;2023-08-20T13:10:13;95403.66;;;31.48;38.85
40708;BME280;26392;42.696;23.350;2023-08-20T13:12:47;95397.59;;;31.46;37.62